createdAt,value
2017-11-06T00:01:26.706Z,4.30
2017-11-06T00:03:54.976Z,4.20
2017-11-06T00:06:23.259Z,4.20
2017-11-06T00:08:51.528Z,4.20
2017-11-06T00:11:19.814Z,4.20
2017-11-06T00:13:48.079Z,4.20
2017-11-06T00:16:16.368Z,4.20
2017-11-06T00:18:44.631Z,4.20
2017-11-06T00:21:12.967Z,4.20
2017-11-06T00:23:40.475Z,4.20
2017-11-06T00:26:08.745Z,4.20
2017-11-06T00:28:37.031Z,4.20
2017-11-06T00:31:05.300Z,4.20
2017-11-06T00:33:33.588Z,4.10
2017-11-06T00:36:01.086Z,4.10
2017-11-06T00:38:28.599Z,4.20
2017-11-06T00:40:56.872Z,4.20
2017-11-06T00:43:25.150Z,4.10
2017-11-06T00:45:53.416Z,4.10
2017-11-06T00:48:21.700Z,4.10
2017-11-06T00:50:49.967Z,4.10
2017-11-06T00:53:18.299Z,4.20
2017-11-06T00:55:45.795Z,4.20
2017-11-06T00:58:14.068Z,4.20
2017-11-06T01:00:41.589Z,4.10
2017-11-06T01:03:09.083Z,4.10
2017-11-06T01:05:36.598Z,4.10
2017-11-06T01:08:04.107Z,4.10
2017-11-06T01:10:32.383Z,4.10
2017-11-06T01:13:00.646Z,4.10
2017-11-06T01:15:28.167Z,4.10
2017-11-06T01:17:55.671Z,4.10
2017-11-06T01:20:23.960Z,4.10
2017-11-06T01:22:52.226Z,4.10
2017-11-06T01:25:20.495Z,4.10
2017-11-06T01:27:48.023Z,4.10
2017-11-06T01:30:16.292Z,4.10
2017-11-06T01:32:43.803Z,4.10
2017-11-06T01:35:12.066Z,4.10
2017-11-06T01:37:39.579Z,4.10
2017-11-06T01:40:07.072Z,4.10
2017-11-06T01:42:34.587Z,4.10
2017-11-06T01:45:02.087Z,4.10
2017-11-06T01:47:29.602Z,4.00
2017-11-06T01:49:57.104Z,4.00
2017-11-06T01:52:24.609Z,4.00
2017-11-06T01:54:52.127Z,4.20
2017-11-06T01:57:19.623Z,4.10
2017-11-06T01:59:47.139Z,4.10
2017-11-06T02:02:14.645Z,4.00
2017-11-06T02:04:42.165Z,3.90
2017-11-06T02:07:10.425Z,3.80
2017-11-06T02:09:37.948Z,3.80
2017-11-06T02:12:05.480Z,3.80
2017-11-06T02:14:33.760Z,3.90
2017-11-06T02:17:01.270Z,3.90
2017-11-06T02:19:28.832Z,3.80
2017-11-06T02:21:56.331Z,3.90
2017-11-06T02:24:23.825Z,3.90
2017-11-06T02:26:51.343Z,3.90
2017-11-06T02:29:19.608Z,3.90
2017-11-06T02:31:47.882Z,3.90
2017-11-06T02:34:16.147Z,3.90
2017-11-06T02:36:43.666Z,3.90
2017-11-06T02:39:11.168Z,3.90
2017-11-06T02:41:39.449Z,3.90
2017-11-06T02:44:07.710Z,3.90
2017-11-06T02:46:35.276Z,3.90
2017-11-06T02:49:03.549Z,3.80
2017-11-06T02:51:31.047Z,3.80
2017-11-06T02:53:58.560Z,3.80
2017-11-06T02:56:26.068Z,3.90
2017-11-06T02:58:53.587Z,3.80
2017-11-06T03:01:21.847Z,3.80
2017-11-06T03:03:49.363Z,3.90
2017-11-06T03:06:16.864Z,3.80
2017-11-06T03:08:44.384Z,3.80
2017-11-06T03:11:11.888Z,3.80
2017-11-06T03:13:39.407Z,3.80
2017-11-06T03:16:06.915Z,3.80
2017-11-06T03:18:35.183Z,3.70
2017-11-06T03:21:02.695Z,3.70
2017-11-06T03:23:30.200Z,3.70
2017-11-06T03:25:58.491Z,3.70
2017-11-06T03:28:26.759Z,3.70
2017-11-06T03:30:55.043Z,3.70
2017-11-06T03:33:23.307Z,3.60
2017-11-06T03:35:51.592Z,3.60
2017-11-06T03:38:19.867Z,3.60
2017-11-06T03:40:48.171Z,3.60
2017-11-06T03:43:15.675Z,3.60
2017-11-06T03:45:43.170Z,3.70
2017-11-06T03:48:10.691Z,3.70
2017-11-06T03:50:38.195Z,3.70
2017-11-06T03:53:05.719Z,3.60
2017-11-06T03:55:33.984Z,3.50
2017-11-06T03:58:01.495Z,3.50
2017-11-06T04:00:29.000Z,3.60
2017-11-06T04:02:56.527Z,3.50
2017-11-06T04:05:24.028Z,3.60
2017-11-06T04:07:52.366Z,3.60
2017-11-06T04:10:19.863Z,3.60
2017-11-06T04:12:47.363Z,3.60
2017-11-06T04:15:14.879Z,3.60
2017-11-06T04:17:43.171Z,3.70
2017-11-06T04:20:11.455Z,3.80
2017-11-06T04:22:38.964Z,3.80
2017-11-06T04:25:06.479Z,3.80
2017-11-06T04:27:33.979Z,3.80
2017-11-06T04:30:01.516Z,3.80
2017-11-06T04:32:29.014Z,3.70
2017-11-06T04:34:56.536Z,3.70
2017-11-06T04:37:24.047Z,3.60
2017-11-06T04:39:52.319Z,3.50
2017-11-06T04:42:20.594Z,3.30
2017-11-06T04:44:48.864Z,3.20
2017-11-06T04:47:17.147Z,3.10
2017-11-06T04:49:45.415Z,3.00
2017-11-06T04:52:13.698Z,2.90
2017-11-06T04:54:41.967Z,2.90
2017-11-06T04:57:09.507Z,2.80
2017-11-06T04:59:37.010Z,2.80
2017-11-06T05:02:04.503Z,2.80
2017-11-06T05:04:32.020Z,2.70
2017-11-06T05:07:00.287Z,2.80
2017-11-06T05:09:28.563Z,2.80
2017-11-06T05:11:56.828Z,2.80
2017-11-06T05:14:25.108Z,2.80
2017-11-06T05:16:53.372Z,2.80
2017-11-06T05:19:20.938Z,2.80
2017-11-06T05:21:49.203Z,2.90
2017-11-06T05:24:16.708Z,2.80
2017-11-06T05:26:44.219Z,2.80
2017-11-06T05:29:11.711Z,2.70
2017-11-06T05:31:39.223Z,2.80
2017-11-06T05:34:06.735Z,2.70
2017-11-06T05:36:34.251Z,2.80
2017-11-06T05:39:01.747Z,2.70
2017-11-06T05:41:29.323Z,2.60
2017-11-06T05:43:56.818Z,2.60
2017-11-06T05:46:24.324Z,2.70
2017-11-06T05:48:51.834Z,2.70
2017-11-06T05:51:19.343Z,2.70
2017-11-06T05:53:46.854Z,2.80
2017-11-06T05:56:14.347Z,2.80
2017-11-06T05:58:41.859Z,2.80
2017-11-06T06:01:09.759Z,2.70
2017-11-06T06:03:38.075Z,2.60
2017-11-06T06:06:05.595Z,2.50
2017-11-06T06:08:33.863Z,2.40
2017-11-06T06:11:02.142Z,2.40
2017-11-06T06:13:30.413Z,2.40
2017-11-06T06:15:58.695Z,2.30
2017-11-06T06:18:26.959Z,2.30
2017-11-06T06:20:54.466Z,2.30
2017-11-06T06:23:21.967Z,2.40
2017-11-06T06:25:49.520Z,2.40
2017-11-06T06:28:17.020Z,2.40
2017-11-06T06:30:44.520Z,2.50
2017-11-06T06:33:12.026Z,2.50
2017-11-06T06:35:40.282Z,2.70
2017-11-06T06:38:07.799Z,2.70
2017-11-06T06:40:35.309Z,2.70
2017-11-06T06:43:03.596Z,2.60
2017-11-06T06:45:31.866Z,2.80
2017-11-06T06:48:00.154Z,2.80
2017-11-06T06:50:27.668Z,2.80
2017-11-06T06:52:55.163Z,2.80
2017-11-06T06:55:23.451Z,3.00
2017-11-06T06:57:50.951Z,3.00
2017-11-06T07:00:18.475Z,3.00
2017-11-06T07:02:45.971Z,2.70
2017-11-06T07:05:13.484Z,2.60
2017-11-06T07:07:40.979Z,2.40
2017-11-06T07:10:08.496Z,2.60
2017-11-06T07:12:35.996Z,2.50
2017-11-06T07:15:03.495Z,2.40
2017-11-06T07:17:31.780Z,2.70
2017-11-06T07:20:00.047Z,2.80
2017-11-06T07:22:28.328Z,2.70
2017-11-06T07:24:56.591Z,2.70
2017-11-06T07:27:24.883Z,2.90
2017-11-06T07:29:53.143Z,3.00
2017-11-06T07:32:20.655Z,3.00
2017-11-06T07:34:48.161Z,3.00
2017-11-06T07:37:16.480Z,3.10
2017-11-06T07:39:43.985Z,3.00
2017-11-06T07:42:11.506Z,3.20
2017-11-06T07:44:39.019Z,3.00
2017-11-06T07:47:07.287Z,2.80
2017-11-06T07:49:35.568Z,3.00
2017-11-06T07:52:03.836Z,3.10
2017-11-06T07:54:31.351Z,3.10
2017-11-06T07:56:58.847Z,3.20
2017-11-06T07:59:26.403Z,3.00
2017-11-06T08:01:53.902Z,3.00
2017-11-06T08:04:21.404Z,3.10
2017-11-06T08:06:48.928Z,3.00
2017-11-06T08:09:16.435Z,3.20
2017-11-06T08:11:43.965Z,3.20
2017-11-06T08:14:11.463Z,3.10
2017-11-06T08:16:39.744Z,3.20
2017-11-06T08:19:08.417Z,3.20
2017-11-06T08:21:36.691Z,3.20
2017-11-06T08:24:04.217Z,3.20
2017-11-06T08:26:32.488Z,3.40
2017-11-06T08:29:00.012Z,3.40
2017-11-06T08:31:27.519Z,3.20
2017-11-06T08:33:55.044Z,3.10
2017-11-06T08:36:22.563Z,3.10
2017-11-06T08:38:50.835Z,3.40
2017-11-06T08:41:18.354Z,3.40
2017-11-06T08:43:45.860Z,3.40
2017-11-06T08:46:14.147Z,3.40
2017-11-06T08:48:42.415Z,3.30
2017-11-06T08:51:10.691Z,3.40
2017-11-06T08:53:38.992Z,3.50
2017-11-06T08:56:06.504Z,3.50
2017-11-06T08:58:34.027Z,3.50
2017-11-06T09:01:01.536Z,3.40
2017-11-06T09:03:29.839Z,3.50
2017-11-06T09:05:57.343Z,3.50
2017-11-06T09:08:24.868Z,3.50
2017-11-06T09:10:52.362Z,3.50
2017-11-06T09:13:19.899Z,3.50
2017-11-06T09:15:47.394Z,2.90
2017-11-06T09:18:14.887Z,2.60
2017-11-06T09:20:42.404Z,2.60
2017-11-06T09:23:09.894Z,2.60
2017-11-06T09:25:38.183Z,2.60
2017-11-06T09:28:05.685Z,2.60
2017-11-06T09:30:33.195Z,2.60
2017-11-06T09:33:00.700Z,2.80
2017-11-06T09:35:28.581Z,2.90
2017-11-06T09:37:56.079Z,3.00
2017-11-06T09:40:23.587Z,3.10
2017-11-06T09:42:51.109Z,3.10
2017-11-06T09:45:18.610Z,3.30
2017-11-06T09:47:46.128Z,3.30
2017-11-06T09:50:13.636Z,3.40
2017-11-06T09:52:41.150Z,3.30
2017-11-06T09:55:08.649Z,3.30
2017-11-06T09:57:36.163Z,3.30
2017-11-06T10:00:03.667Z,3.40
2017-11-06T10:02:31.163Z,3.30
2017-11-06T10:04:58.675Z,3.20
2017-11-06T10:07:26.178Z,3.10
2017-11-06T10:09:53.704Z,3.20
2017-11-06T10:12:21.976Z,3.20
2017-11-06T10:14:49.495Z,3.20
2017-11-06T10:17:16.986Z,3.10
2017-11-06T10:19:44.540Z,3.10
2017-11-06T10:22:12.035Z,3.00
2017-11-06T10:24:39.530Z,3.00
2017-11-06T10:27:07.047Z,3.20
2017-11-06T10:29:34.539Z,3.20
2017-11-06T10:32:02.055Z,3.30
2017-11-06T10:34:30.327Z,3.20
2017-11-06T10:36:58.615Z,3.20
2017-11-06T10:39:26.114Z,3.20
2017-11-06T10:41:53.641Z,3.40
2017-11-06T10:44:21.147Z,3.20
2017-11-06T10:46:49.419Z,3.30
2017-11-06T10:49:16.943Z,3.30
2017-11-06T10:51:44.455Z,3.50
2017-11-06T10:54:11.966Z,3.40
2017-11-06T10:56:39.467Z,3.30
2017-11-06T10:59:06.984Z,3.30
2017-11-06T11:01:34.491Z,3.60
2017-11-06T11:04:02.012Z,3.70
2017-11-06T11:06:29.516Z,3.70
2017-11-06T11:08:57.827Z,3.70
2017-11-06T11:11:25.331Z,3.60
2017-11-06T11:13:52.823Z,3.80
2017-11-06T11:16:20.339Z,3.90
2017-11-06T11:18:47.838Z,3.90
2017-11-06T11:21:15.363Z,3.90
2017-11-06T11:23:42.859Z,3.70
2017-11-06T11:26:10.380Z,3.50
2017-11-06T11:28:37.884Z,3.70
2017-11-06T11:31:05.408Z,3.90
2017-11-06T11:33:33.697Z,3.70
2017-11-06T11:36:01.970Z,3.50
2017-11-06T11:38:30.255Z,3.80
2017-11-06T11:40:58.528Z,3.80
2017-11-06T11:43:26.054Z,3.80
2017-11-06T11:45:53.559Z,3.90
2017-11-06T11:48:21.103Z,4.00
2017-11-06T11:50:49.375Z,3.80
2017-11-06T11:53:17.644Z,3.80
2017-11-06T11:55:45.927Z,3.80
2017-11-06T11:58:14.207Z,3.90
2017-11-06T12:00:41.736Z,3.90
2017-11-06T12:03:09.244Z,3.90
2017-11-06T12:05:36.764Z,3.90
2017-11-06T12:08:05.037Z,3.70
2017-11-06T12:10:33.352Z,3.70
2017-11-06T12:13:00.858Z,3.60
2017-11-06T12:15:28.358Z,3.80
2017-11-06T12:17:55.871Z,3.70
2017-11-06T12:20:23.373Z,4.00
2017-11-06T12:22:50.892Z,4.20
2017-11-06T12:25:18.399Z,4.10
2017-11-06T12:27:45.931Z,3.90
2017-11-06T12:30:14.195Z,3.80
2017-11-06T12:32:41.719Z,3.80
2017-11-06T12:35:09.225Z,3.70
2017-11-06T12:37:37.536Z,3.40
2017-11-06T12:40:05.292Z,3.40
2017-11-06T12:42:32.804Z,3.50
2017-11-06T12:45:00.331Z,3.60
2017-11-06T12:47:28.594Z,3.70
2017-11-06T12:49:56.120Z,3.60
2017-11-06T12:52:23.627Z,3.80
2017-11-06T12:54:51.147Z,3.80
2017-11-06T12:57:18.647Z,3.70
2017-11-06T12:59:46.191Z,3.80
2017-11-06T13:02:13.691Z,3.80
2017-11-06T13:04:41.192Z,3.70
2017-11-06T13:07:08.715Z,3.80
2017-11-06T13:09:37.000Z,3.70
2017-11-06T13:12:05.515Z,3.80
2017-11-06T13:14:33.049Z,3.80
2017-11-06T13:17:00.608Z,3.80
2017-11-06T13:19:28.127Z,3.90
2017-11-06T13:21:55.650Z,3.80
2017-11-06T13:24:23.168Z,3.90
2017-11-06T13:26:51.457Z,3.80
2017-11-06T13:29:19.719Z,4.00
2017-11-06T13:31:47.986Z,3.90
2017-11-06T13:34:15.507Z,3.80
2017-11-06T13:36:43.011Z,3.80
2017-11-06T13:39:11.293Z,3.90
2017-11-06T13:41:39.568Z,3.90
2017-11-06T13:44:07.858Z,3.90
2017-11-06T13:46:36.291Z,3.90
2017-11-06T13:49:03.816Z,3.90
2017-11-06T13:51:31.325Z,4.00
2017-11-06T13:53:58.876Z,4.00
2017-11-06T13:56:26.431Z,4.00
2017-11-06T13:58:53.934Z,4.10
2017-11-06T14:01:21.455Z,4.00
2017-11-06T14:03:48.956Z,4.10
2017-11-06T14:06:16.485Z,4.20
2017-11-06T14:08:44.756Z,4.20
2017-11-06T14:11:13.035Z,4.20
2017-11-06T14:13:41.302Z,4.20
2017-11-06T14:16:08.818Z,4.20
2017-11-06T14:18:36.320Z,4.20
2017-11-06T14:21:03.883Z,4.20
2017-11-06T14:23:32.160Z,4.30
2017-11-06T14:26:00.422Z,4.30
2017-11-06T14:28:27.935Z,4.30
2017-11-06T14:30:55.438Z,4.50
2017-11-06T14:33:22.952Z,4.50
2017-11-06T14:35:50.460Z,4.60
2017-11-06T14:38:17.975Z,4.50
2017-11-06T14:40:45.499Z,4.40
2017-11-06T14:43:13.805Z,4.40
2017-11-06T14:45:41.345Z,4.40
2017-11-06T14:48:10.198Z,4.60
2017-11-06T14:50:37.712Z,4.50
2017-11-06T14:53:05.215Z,4.40
2017-11-06T14:55:32.740Z,4.40
2017-11-06T14:58:00.243Z,4.40
2017-11-06T15:00:28.530Z,4.40
2017-11-06T15:02:56.800Z,4.40
2017-11-06T15:05:25.096Z,4.60
2017-11-06T15:07:52.600Z,4.50
2017-11-06T15:10:20.115Z,4.50
2017-11-06T15:12:47.627Z,4.60
2017-11-06T15:15:15.172Z,4.50
2017-11-06T15:17:42.667Z,4.50
2017-11-06T15:20:11.282Z,4.40
2017-11-06T15:22:38.807Z,4.40
2017-11-06T15:25:07.080Z,4.40
2017-11-06T15:27:35.362Z,4.40
2017-11-06T15:30:03.641Z,4.30
2017-11-06T15:32:31.927Z,4.40
2017-11-06T15:34:59.431Z,4.40
2017-11-06T15:37:26.956Z,4.30
2017-11-06T15:39:54.461Z,4.30
2017-11-06T15:42:22.004Z,4.30
2017-11-06T15:44:49.511Z,4.20
2017-11-06T15:47:17.783Z,4.20
2017-11-06T15:49:46.071Z,4.20
2017-11-06T15:52:13.579Z,4.20
2017-11-06T15:54:41.111Z,4.20
2017-11-06T15:57:08.614Z,4.30
2017-11-06T15:59:36.127Z,4.30
2017-11-06T16:02:03.623Z,4.30
2017-11-06T16:04:31.149Z,4.30
2017-11-06T16:06:58.651Z,4.20
2017-11-06T16:09:26.939Z,4.20
2017-11-06T16:11:55.212Z,4.30
2017-11-06T16:14:23.518Z,4.30
2017-11-06T16:16:51.024Z,4.20
2017-11-06T16:19:18.527Z,4.20
2017-11-06T16:21:46.047Z,4.50
2017-11-06T16:24:13.543Z,4.40
2017-11-06T16:26:41.072Z,4.40
2017-11-06T16:29:09.338Z,4.30
2017-11-06T16:31:36.858Z,4.30
2017-11-06T16:34:07.183Z,4.30
2017-11-06T16:36:34.699Z,4.30
2017-11-06T16:39:02.971Z,4.30
2017-11-06T16:41:31.271Z,4.40
2017-11-06T16:43:58.775Z,4.40
2017-11-06T16:46:26.280Z,4.40
2017-11-06T16:48:53.798Z,4.30
2017-11-06T16:51:21.295Z,4.50
2017-11-06T16:53:48.816Z,4.60
2017-11-06T16:56:16.326Z,4.40
2017-11-06T16:58:43.858Z,4.30
2017-11-06T17:01:11.371Z,4.40
2017-11-06T17:03:38.951Z,4.50
2017-11-06T17:06:06.461Z,4.50
2017-11-06T17:08:33.968Z,4.50
2017-11-06T17:11:01.496Z,4.40
2017-11-06T17:13:29.763Z,4.40
2017-11-06T17:15:57.283Z,4.30
2017-11-06T17:18:25.551Z,4.40
2017-11-06T17:20:53.840Z,4.40
2017-11-06T17:23:22.119Z,4.40
2017-11-06T17:25:50.405Z,4.40
2017-11-06T17:28:17.919Z,4.40
2017-11-06T17:30:45.467Z,4.40
2017-11-06T17:33:13.736Z,4.20
2017-11-06T17:35:41.238Z,4.20
2017-11-06T17:38:09.536Z,4.10
2017-11-06T17:40:37.038Z,4.10
2017-11-06T17:43:04.567Z,4.20
2017-11-06T17:45:32.080Z,4.20
2017-11-06T17:48:00.364Z,4.30
2017-11-06T17:50:28.638Z,4.20
2017-11-06T17:52:56.924Z,4.20
2017-11-06T17:55:24.433Z,4.20
2017-11-06T17:57:52.744Z,4.30
2017-11-06T18:00:21.007Z,4.40
2017-11-06T18:02:48.506Z,4.30
2017-11-06T18:05:16.027Z,4.20
2017-11-06T18:07:44.378Z,4.10
2017-11-06T18:10:11.913Z,4.20
2017-11-06T18:12:39.423Z,4.20
2017-11-06T18:15:06.948Z,4.10
2017-11-06T18:17:34.455Z,4.10
2017-11-06T18:20:02.743Z,4.20
2017-11-06T18:22:30.252Z,4.20
2017-11-06T18:24:58.185Z,4.10
2017-11-06T18:27:25.687Z,4.10
2017-11-06T18:29:53.193Z,4.20
2017-11-06T18:32:20.729Z,4.20
2017-11-06T18:34:49.000Z,4.10
2017-11-06T18:37:17.283Z,4.10
2017-11-06T18:39:45.550Z,4.10
2017-11-06T18:42:13.835Z,4.10
2017-11-06T18:44:42.112Z,4.10
2017-11-06T18:47:10.400Z,4.20
2017-11-06T18:49:37.907Z,4.20
2017-11-06T18:52:05.473Z,4.20
2017-11-06T18:54:32.979Z,4.20
2017-11-06T18:57:00.486Z,4.30
2017-11-06T18:59:28.008Z,4.20
2017-11-06T19:01:55.516Z,4.40
2017-11-06T19:04:23.043Z,4.20
2017-11-06T19:06:50.547Z,4.30
2017-11-06T19:09:18.831Z,4.40
2017-11-06T19:11:47.091Z,4.40
2017-11-06T19:14:15.383Z,4.20
2017-11-06T19:16:43.647Z,4.30
2017-11-06T19:19:11.956Z,4.40
2017-11-06T19:21:39.459Z,4.40
2017-11-06T19:24:06.958Z,4.30
2017-11-06T19:26:34.480Z,4.50
2017-11-06T19:29:01.974Z,4.40
2017-11-06T19:31:29.499Z,4.40
2017-11-06T19:33:57.000Z,4.30
2017-11-06T19:36:24.520Z,4.10
2017-11-06T19:38:52.016Z,4.10
2017-11-06T19:41:19.559Z,4.20
2017-11-06T19:43:47.837Z,4.10
2017-11-06T19:46:16.099Z,4.10
2017-11-06T19:48:43.949Z,4.10
2017-11-06T19:51:11.448Z,4.10
2017-11-06T19:53:38.967Z,4.10
2017-11-06T19:56:06.476Z,4.10
2017-11-06T19:58:33.995Z,4.10
2017-11-06T20:01:02.264Z,4.10
2017-11-06T20:03:30.556Z,4.10
2017-11-06T20:05:58.823Z,4.00
2017-11-06T20:08:27.135Z,4.00
2017-11-06T20:10:54.642Z,4.00
2017-11-06T20:13:22.199Z,4.10
2017-11-06T20:15:49.715Z,4.10
2017-11-06T20:18:17.261Z,4.00
2017-11-06T20:20:44.807Z,4.00
2017-11-06T20:23:12.307Z,4.00
2017-11-06T20:25:39.832Z,4.00
2017-11-06T20:28:07.336Z,4.00
2017-11-06T20:30:34.851Z,3.90
2017-11-06T20:33:02.356Z,3.90
2017-11-06T20:35:29.912Z,3.90
2017-11-06T20:37:57.419Z,3.90
2017-11-06T20:40:24.914Z,3.90
2017-11-06T20:42:52.430Z,3.90
2017-11-06T20:45:20.694Z,3.90
2017-11-06T20:47:48.980Z,3.80
2017-11-06T20:50:17.242Z,3.80
2017-11-06T20:52:45.522Z,3.80
2017-11-06T20:55:13.804Z,3.70
2017-11-06T20:57:42.107Z,3.70
2017-11-06T21:00:09.598Z,3.70
2017-11-06T21:02:37.109Z,3.70
2017-11-06T21:05:04.629Z,3.70
2017-11-06T21:07:32.131Z,3.70
2017-11-06T21:09:59.663Z,3.70
2017-11-06T21:12:27.936Z,3.70
2017-11-06T21:14:56.224Z,3.70
2017-11-06T21:17:24.491Z,3.70
2017-11-06T21:19:52.767Z,3.60
2017-11-06T21:22:21.040Z,3.70
2017-11-06T21:24:49.352Z,3.70
2017-11-06T21:27:16.851Z,3.70
2017-11-06T21:29:49.971Z,3.70
2017-11-06T21:32:18.247Z,3.70
2017-11-06T21:34:46.507Z,3.60
2017-11-06T21:37:14.022Z,3.60
2017-11-06T21:39:41.519Z,3.70
2017-11-06T21:42:09.040Z,3.70
2017-11-06T21:44:36.544Z,3.60
2017-11-06T21:47:04.827Z,3.60
2017-11-06T21:49:33.090Z,3.70
2017-11-06T21:52:00.612Z,3.60
2017-11-06T21:54:28.128Z,3.70
2017-11-06T21:56:56.390Z,3.60
2017-11-06T21:59:24.680Z,3.70
2017-11-06T22:01:52.947Z,3.70
2017-11-06T22:04:21.226Z,3.70
2017-11-06T22:06:49.492Z,3.60
2017-11-06T22:09:17.779Z,3.60
2017-11-06T22:11:46.048Z,3.60
2017-11-06T22:14:14.349Z,3.70
2017-11-06T22:16:41.863Z,3.60
2017-11-06T22:19:09.362Z,3.60
2017-11-06T22:21:36.917Z,3.60
2017-11-06T22:24:04.426Z,3.60
2017-11-06T22:26:31.935Z,3.60
2017-11-06T22:28:59.436Z,3.60
2017-11-06T22:31:26.974Z,3.60
2017-11-06T22:33:54.476Z,3.60
2017-11-06T22:36:21.975Z,3.60
2017-11-06T22:38:49.487Z,3.60
2017-11-06T22:41:16.992Z,3.60
2017-11-06T22:43:44.519Z,3.60
2017-11-06T22:46:12.788Z,3.60
2017-11-06T22:48:40.303Z,3.60
2017-11-06T22:51:07.804Z,3.60
2017-11-06T22:53:35.346Z,3.60
2017-11-06T22:56:02.846Z,3.70
2017-11-06T22:58:30.350Z,3.70
2017-11-06T23:00:57.872Z,3.70
2017-11-06T23:03:25.386Z,3.70
2017-11-06T23:05:52.903Z,3.70
2017-11-06T23:08:20.404Z,3.60
2017-11-06T23:10:47.928Z,3.60
2017-11-06T23:13:15.422Z,3.60
2017-11-06T23:15:42.971Z,3.60
2017-11-06T23:18:10.474Z,3.70
2017-11-06T23:20:37.980Z,3.70
2017-11-06T23:23:05.508Z,3.70
2017-11-06T23:25:33.007Z,3.70
2017-11-06T23:28:00.536Z,3.70
2017-11-06T23:30:28.041Z,3.70
2017-11-06T23:32:56.329Z,3.70
2017-11-06T23:35:24.594Z,3.70
2017-11-06T23:37:52.892Z,3.70
2017-11-06T23:40:20.386Z,3.70
2017-11-06T23:42:47.912Z,3.70
2017-11-06T23:45:15.433Z,3.70
2017-11-06T23:47:42.953Z,3.70
2017-11-06T23:50:10.455Z,3.70
2017-11-06T23:52:37.975Z,3.70
2017-11-06T23:55:05.471Z,3.70
2017-11-06T23:57:32.992Z,3.70
